Terminal Aerodrome Forecast
Issued by NWS

Home | Current Version | Previous Version | Text Only | Print | Product List | Glossary On
Versions: 1 2 3 4 5 6 7 8 9 10 11 12 13 14 15 16 17 18 19 20
000
FTUS43 KMQT 301100 RRA
TAFIWD
TAF
KIWD 301140Z 3012/3112 29005KT P6SM OVC015
      TEMPO 3012/3015 6SM -SHRA
     FM301800 30010G20KT P6SM -SHRA OVC025
     FM302300 32012G22KT P6SM -SHRASN OVC025
     FM310200 34015G27KT 4SM -SHSN OVC018
      AMD LTD TO CLD VIS AND WIND=

USA.gov is the U.S. government's official web portal to all federal, state and local government web resources and services.